Time;durP1;ratioP1;P1;durP2;ratioP2;P2;SDS_P1;SDS_P2;PMS_P1;PMS_P2;Temp;Humidity;BMP_temperature;BMP_pressure;BME280_temperature;BME280_humidity;BME280_pressure;Samples;Min_cycle;Max_cycle;Signal;HPM_P1;HPM_P2
2022/08/14 00:01:06;;;;;;;5.15;3.05;;;22.70;99.90;;;;;;4983907;28;19921;-75
2022/08/14 00:03:32;;;;;;;;;;;22.70;99.60;;;;;;4965680;28;20038;-75
2022/08/14 00:06:00;;;;;;;5.20;2.88;;;22.60;99.90;;;;;;4967091;28;19994;-75
2022/08/14 00:08:26;;;;;;;4.88;3.28;;;22.60;99.90;;;;;;4964011;28;20604;-75
2022/08/14 00:10:52;;;;;;;4.10;2.83;;;22.60;99.90;;;;;;4984759;28;20477;-75
2022/08/14 00:13:20;;;;;;;6.78;2.88;;;22.60;99.90;;;;;;4981173;28;20125;-75
2022/08/14 00:15:48;;;;;;;4.70;3.22;;;22.60;99.90;;;;;;4965084;28;20601;-75
2022/08/14 00:18:17;;;;;;;4.78;2.75;;;22.50;99.90;;;;;;4964536;28;20400;-75
2022/08/14 00:20:43;;;;;;;5.13;2.97;;;22.50;99.90;;;;;;4982628;28;20038;-75
2022/08/14 00:23:09;;;;;;;;;;;22.50;99.90;;;;;;4981989;28;20054;-75
2022/08/14 00:25:35;;;;;;;4.35;2.80;;;22.50;99.90;;;;;;4964738;28;19940;-75
2022/08/14 00:28:01;;;;;;;;;;;22.40;99.90;;;;;;4980706;28;20050;-75
2022/08/14 00:30:27;;;;;;;4.18;2.85;;;22.40;99.90;;;;;;4967682;28;19925;-75
2022/08/14 00:32:53;;;;;;;;;;;22.40;99.90;;;;;;4980807;28;20489;-75
2022/08/14 00:35:18;;;;;;;4.35;2.88;;;22.40;99.90;;;;;;4988098;28;19924;-75
2022/08/14 00:37:44;;;;;;;;;;;22.40;99.90;;;;;;4982323;28;20515;-75
2022/08/14 00:40:14;;;;;;;3.80;2.63;;;22.30;99.90;;;;;;4970300;28;20548;-75
2022/08/14 00:42:40;;;;;;;4.90;3.40;;;22.30;99.90;;;;;;4966273;28;20778;-75
2022/08/14 00:45:07;;;;;;;;;;;22.40;99.90;;;;;;4985361;28;20125;-75
2022/08/14 00:47:34;;;;;;;3.78;2.63;;;22.30;99.90;;;;;;4980601;28;19928;-75
2022/08/14 00:50:01;;;;;;;5.05;2.75;;;22.30;99.90;;;;;;4984462;28;20061;-75
2022/08/14 00:52:27;;;;;;;3.47;2.55;;;22.30;99.90;;;;;;4964410;28;20052;-75
2022/08/14 00:54:53;;;;;;;6.85;3.35;;;22.20;99.90;;;;;;4959153;28;20038;-75
2022/08/14 00:57:27;;;;;;;;;;;22.20;99.90;;;;;;4986300;28;20045;-75
2022/08/14 00:59:53;;;;;;;4.80;3.08;;;22.20;99.90;;;;;;4976732;28;19921;-75
2022/08/14 01:02:23;;;;;;;;;;;22.10;99.90;;;;;;4984243;28;20048;-75
2022/08/14 01:04:52;;;;;;;4.35;3.20;;;22.10;99.90;;;;;;4964063;28;19925;-75
2022/08/14 01:07:19;;;;;;;5.00;3.45;;;22.10;99.90;;;;;;4982936;28;20062;-75
2022/08/14 01:09:53;;;;;;;4.28;3.38;;;22.00;99.90;;;;;;4984638;28;20173;-75
2022/08/14 01:12:20;;;;;;;5.75;3.65;;;22.00;99.90;;;;;;4986580;28;20295;-75
2022/08/14 01:14:46;;;;;;;5.57;3.58;;;22.00;99.90;;;;;;4974439;28;20065;-76
2022/08/14 01:17:12;;;;;;;;;;;22.00;99.90;;;;;;4986871;28;20034;-76
2022/08/14 01:22:22;;;;;;;5.85;3.50;;;21.90;99.90;;;;;;4965633;28;20077;-75
2022/08/14 01:24:47;;;;;;;;;;;21.90;99.90;;;;;;4979857;28;20181;-76
2022/08/14 01:27:19;;;;;;;5.45;3.50;;;21.80;99.90;;;;;;4980959;28;20375;-75
2022/08/14 01:29:51;;;;;;;6.75;3.42;;;21.90;99.90;;;;;;4965468;28;20038;-75
2022/08/14 01:32:17;;;;;;;4.25;3.50;;;21.80;99.90;;;;;;4966896;28;20507;-75
2022/08/14 01:34:48;;;;;;;6.32;3.83;;;21.70;99.90;;;;;;4982578;28;20831;-75
2022/08/14 01:37:13;;;;;;;6.72;4.18;;;21.80;99.90;;;;;;4981726;28;20443;-75
2022/08/14 01:39:39;;;;;;;;;;;21.70;99.90;;;;;;4973264;28;20125;-75
2022/08/14 01:42:05;;;;;;;6.80;3.90;;;21.70;99.90;;;;;;4986307;28;19925;-76
2022/08/14 01:44:31;;;;;;;;;;;21.70;99.90;;;;;;4972037;28;20464;-75
2022/08/14 01:46:58;;;;;;;4.70;3.33;;;21.60;99.90;;;;;;4986386;28;19980;-75
2022/08/14 01:49:25;;;;;;;7.40;4.35;;;21.60;99.90;;;;;;4972253;28;20089;-75
2022/08/14 01:51:55;;;;;;;5.97;4.15;;;21.60;99.90;;;;;;4992118;23;20095;-72
2022/08/14 01:54:23;;;;;;;7.47;4.03;;;21.60;99.90;;;;;;4970465;28;20370;-72
2022/08/14 01:56:55;;;;;;;5.75;3.75;;;21.60;99.90;;;;;;4952883;28;20479;-71
2022/08/14 01:59:37;;;;;;;6.50;4.15;;;21.50;99.90;;;;;;4969081;28;20082;-71
2022/08/14 02:02:11;;;;;;;5.32;3.95;;;21.50;99.90;;;;;;4927658;29;20424;-71
2022/08/14 02:04:37;;;;;;;5.57;4.18;;;21.50;99.90;;;;;;4949472;29;20043;-70
2022/08/14 02:07:04;;;;;;;6.03;4.05;;;21.50;99.90;;;;;;4951052;28;20051;-72
2022/08/14 02:09:34;;;;;;;6.10;4.22;;;21.50;99.90;;;;;;4923221;28;20493;-71
2022/08/14 02:12:02;;;;;;;6.47;3.75;;;21.50;99.90;;;;;;4934135;29;20069;-71
2022/08/14 02:14:28;;;;;;;6.30;4.40;;;21.50;99.90;;;;;;4934103;29;20106;-71
2022/08/14 02:16:54;;;;;;;;;;;21.50;99.90;;;;;;4938392;28;20424;-71
2022/08/14 02:19:27;;;;;;;6.80;4.72;;;21.50;99.90;;;;;;4965611;28;19980;-72
2022/08/14 02:21:57;;;;;;;6.43;4.60;;;21.40;99.90;;;;;;4933158;29;20113;-71
2022/08/14 02:24:30;;;;;;;7.28;4.32;;;21.40;99.90;;;;;;4940989;28;20519;-71
2022/08/14 02:26:58;;;;;;;7.10;4.63;;;21.40;99.90;;;;;;4950997;29;20409;-73
2022/08/14 02:29:27;;;;;;;5.53;4.22;;;21.40;99.90;;;;;;4944303;28;20043;-71
2022/08/14 02:31:56;;;;;;;6.95;4.57;;;21.40;99.90;;;;;;4952452;28;20181;-72
2022/08/14 02:34:32;;;;;;;6.90;4.55;;;21.40;99.90;;;;;;4952643;28;20156;-72
2022/08/14 02:37:04;;;;;;;6.47;4.65;;;21.30;99.90;;;;;;4970390;28;20051;-71
2022/08/14 02:39:30;;;;;;;5.70;4.35;;;21.30;99.90;;;;;;4952150;28;20054;-72
2022/08/14 02:41:56;;;;;;;;;;;21.30;99.90;;;;;;4970414;28;20049;-72
2022/08/14 02:44:22;;;;;;;7.65;4.90;;;21.30;99.90;;;;;;4951783;28;19925;-72
2022/08/14 02:46:50;;;;;;;8.07;5.20;;;21.20;99.90;;;;;;4969471;28;20372;-71
2022/08/14 02:49:16;;;;;;;7.13;4.80;;;21.20;99.90;;;;;;4969467;28;20225;-71
2022/08/14 02:51:46;;;;;;;7.65;4.43;;;21.20;99.90;;;;;;4969563;28;20046;-72
2022/08/14 02:54:13;;;;;;;6.85;4.70;;;21.20;99.90;;;;;;4951920;28;20034;-71
2022/08/14 02:56:39;;;;;;;;;;;21.20;99.90;;;;;;4951713;28;20050;-71
2022/08/14 02:59:08;;;;;;;6.80;4.95;;;21.10;99.90;;;;;;4951874;28;19917;-72
2022/08/14 03:01:35;;;;;;;5.90;4.25;;;21.10;99.90;;;;;;4951547;28;20050;-71
2022/08/14 03:04:04;;;;;;;6.45;4.35;;;21.10;99.90;;;;;;4969691;28;20054;-72
2022/08/14 03:06:31;;;;;;;5.63;4.47;;;21.10;99.90;;;;;;4951723;28;20055;-71
2022/08/14 03:08:58;;;;;;;8.85;5.10;;;21.00;99.90;;;;;;4969863;28;20043;-71
2022/08/14 03:11:26;;;;;;;7.10;4.82;;;21.00;99.90;;;;;;4969538;28;20494;-72
2022/08/14 03:13:52;;;;;;;7.82;5.03;;;21.00;99.90;;;;;;4935574;28;20413;-72
2022/08/14 03:16:23;;;;;;;;;;;21.00;99.90;;;;;;4951612;28;20058;-71
2022/08/14 03:18:53;;;;;;;8.68;5.10;;;20.90;99.90;;;;;;4967751;28;19968;-71
2022/08/14 03:21:21;;;;;;;8.50;5.38;;;20.90;99.90;;;;;;4969471;28;20428;-71
2022/08/14 03:23:49;;;;;;;9.60;5.25;;;20.90;99.90;;;;;;4951753;28;20043;-71
2022/08/14 03:26:26;;;;;;;7.05;4.75;;;20.90;99.90;;;;;;4951200;28;20046;-71
2022/08/14 03:28:52;;;;;;;9.63;5.25;;;20.90;99.90;;;;;;4968922;28;20093;-71
2022/08/14 03:31:22;;;;;;;;;;;20.90;99.90;;;;;;4950872;28;20047;-71
2022/08/14 03:33:50;;;;;;;6.43;4.90;;;20.80;99.90;;;;;;4950871;28;19926;-72
2022/08/14 03:36:19;;;;;;;9.18;5.53;;;20.80;99.90;;;;;;4947312;29;20479;-71
2022/08/14 03:38:51;;;;;;;7.68;5.43;;;20.70;99.90;;;;;;4934713;28;20406;-71
2022/08/14 03:41:20;;;;;;;7.25;5.57;;;20.80;99.90;;;;;;4951072;28;20187;-71
2022/08/14 03:43:49;;;;;;;7.43;5.45;;;20.70;99.90;;;;;;4969123;28;20043;-72
2022/08/14 03:46:15;;;;;;;7.65;5.43;;;20.70;99.90;;;;;;4934866;28;20038;-71
2022/08/14 03:48:42;;;;;;;7.65;5.68;;;20.70;99.90;;;;;;4968644;28;20050;-72
2022/08/14 03:51:13;;;;;;;8.38;5.50;;;20.70;99.90;;;;;;4951161;28;20054;-71
2022/08/14 03:53:44;;;;;;;7.60;5.47;;;20.70;99.90;;;;;;4968214;28;20078;-71
2022/08/14 03:56:15;;;;;;;7.72;5.28;;;20.70;99.90;;;;;;4951300;28;20387;-72
2022/08/14 03:58:47;;;;;;;8.38;5.70;;;20.70;99.90;;;;;;4934819;28;20051;-72
2022/08/14 04:01:14;;;;;;;7.60;5.80;;;20.60;99.90;;;;;;4968407;28;20460;-72
2022/08/14 04:03:41;;;;;;;7.95;5.18;;;20.60;99.90;;;;;;4950896;28;20145;-71
2022/08/14 04:06:10;;;;;;;9.50;5.68;;;20.60;99.90;;;;;;4967973;28;20039;-72
2022/08/14 04:08:40;;;;;;;10.02;6.63;;;20.60;99.90;;;;;;4950897;28;20063;-71
2022/08/14 04:11:07;;;;;;;8.25;5.40;;;20.60;99.90;;;;;;4950493;28;20045;-71
2022/08/14 04:13:35;;;;;;;7.82;5.20;;;20.60;99.90;;;;;;4950879;28;20496;-72
2022/08/14 04:16:06;;;;;;;8.85;5.68;;;20.60;99.90;;;;;;4967842;28;20078;-72
2022/08/14 04:18:32;;;;;;;8.75;5.85;;;20.50;99.90;;;;;;4934473;28;20057;-72
2022/08/14 04:20:58;;;;;;;;;;;20.50;99.90;;;;;;4931739;29;20043;-71
2022/08/14 04:23:24;;;;;;;11.43;5.65;;;20.50;99.90;;;;;;4935111;29;19925;-71
2022/08/14 04:25:53;;;;;;;7.22;5.57;;;20.40;99.90;;;;;;4962113;28;20043;-71
2022/08/14 04:28:20;;;;;;;10.10;5.45;;;20.40;99.90;;;;;;4950473;28;20551;-71
2022/08/14 04:30:46;;;;;;;8.00;5.97;;;20.40;99.90;;;;;;4968164;28;20043;-71
2022/08/14 04:33:13;;;;;;;8.02;5.50;;;20.40;99.90;;;;;;4950394;28;20108;-71
2022/08/14 04:35:42;;;;;;;10.45;5.65;;;20.40;99.90;;;;;;4967826;28;20047;-71
2022/08/14 04:43:40;;;;;;;8.60;5.78;;;20.40;99.90;;;;;;4971101;28;20083;-71
2022/08/14 04:46:15;;;;;;;8.32;5.97;;;20.40;99.90;;;;;;4971131;28;20047;-71
2022/08/14 04:48:41;;;;;;;7.30;5.10;;;20.40;99.90;;;;;;4950147;29;20054;-71
2022/08/14 04:51:08;;;;;;;;;;;20.40;99.90;;;;;;4935819;29;20496;-71
2022/08/14 04:53:37;;;;;;;7.88;5.85;;;20.40;99.90;;;;;;4951507;29;19923;-71
2022/08/14 04:56:06;;;;;;;8.57;5.63;;;20.30;99.90;;;;;;4967661;28;20047;-70
2022/08/14 04:58:33;;;;;;;9.10;6.38;;;20.40;99.90;;;;;;4971880;28;20448;-71
2022/08/14 05:01:00;;;;;;;9.15;6.20;;;20.40;99.90;;;;;;4971636;28;20051;-72
2022/08/14 05:03:30;;;;;;;7.30;5.72;;;20.40;99.90;;;;;;4954180;28;20050;-71
2022/08/14 05:06:00;;;;;;;9.25;6.00;;;20.40;99.90;;;;;;4972412;28;20567;-72
2022/08/14 05:08:26;;;;;;;7.65;5.78;;;20.40;99.90;;;;;;4950707;28;20134;-71
2022/08/14 05:10:54;;;;;;;8.93;6.28;;;20.40;99.90;;;;;;4971588;28;20113;-71
2022/08/14 05:13:26;;;;;;;9.38;6.28;;;20.40;99.90;;;;;;4953573;28;20042;-71
2022/08/14 05:15:55;;;;;;;9.27;6.57;;;20.40;99.90;;;;;;4969464;28;20047;-71
2022/08/14 05:18:23;;;;;;;9.35;6.63;;;20.40;99.90;;;;;;4953971;28;20425;-71
2022/08/14 05:20:51;;;;;;;9.25;5.95;;;20.40;99.90;;;;;;4939133;28;20050;-71
2022/08/14 05:23:19;;;;;;;7.30;5.85;;;20.40;99.90;;;;;;4971615;28;20047;-71
2022/08/14 05:25:47;;;;;;;10.02;6.30;;;20.50;99.90;;;;;;4970854;28;20053;-72
2022/08/14 05:28:18;;;;;;;9.63;6.10;;;20.50;99.90;;;;;;4970609;28;20058;-71
2022/08/14 05:30:52;;;;;;;6.68;5.20;;;20.50;99.90;;;;;;4970395;28;20083;-71
2022/08/14 05:33:19;;;;;;;7.15;5.50;;;20.50;99.90;;;;;;4949907;28;20058;-71
2022/08/14 05:35:47;;;;;;;8.32;6.40;;;20.60;99.90;;;;;;4952494;28;20053;-71
2022/08/14 05:38:18;;;;;;;8.45;5.88;;;20.50;99.90;;;;;;4970522;28;20051;-71
2022/08/14 05:40:48;;;;;;;10.00;6.00;;;20.60;99.90;;;;;;4944848;28;20228;-71
2022/08/14 05:43:14;;;;;;;8.80;6.03;;;20.60;99.90;;;;;;4970371;28;20110;-71
2022/08/14 05:45:43;;;;;;;7.65;5.45;;;20.60;99.90;;;;;;4952712;28;20122;-71
2022/08/14 05:48:13;;;;;;;9.43;6.30;;;20.70;99.90;;;;;;4952584;28;20053;-71
2022/08/14 05:50:47;;;;;;;11.52;6.25;;;20.70;99.90;;;;;;4970066;28;20039;-71
2022/08/14 05:53:13;;;;;;;7.47;5.28;;;20.70;99.90;;;;;;4946328;28;20039;-71
2022/08/14 05:55:44;;;;;;;7.70;5.45;;;20.80;99.90;;;;;;4970320;28;20045;-70
2022/08/14 05:58:13;;;;;;;8.35;5.65;;;20.80;99.90;;;;;;4952705;28;20053;-71
2022/08/14 06:00:43;;;;;;;8.30;4.90;;;20.80;99.90;;;;;;4970419;28;20050;-70
2022/08/14 06:03:15;;;;;;;7.20;4.55;;;20.90;99.90;;;;;;4955487;28;20055;-71
2022/08/14 06:05:42;;;;;;;8.43;5.30;;;20.90;99.90;;;;;;4942501;29;20055;-71
2022/08/14 06:08:16;;;;;;;6.90;4.85;;;20.90;99.90;;;;;;4952812;28;20059;-71
2022/08/14 06:10:43;;;;;;;7.30;5.15;;;21.00;99.90;;;;;;4962198;28;20039;-71
2022/08/14 06:13:18;;;;;;;7.68;5.10;;;21.00;99.90;;;;;;4969601;28;20353;-71
2022/08/14 06:15:44;;;;;;;6.85;5.05;;;21.10;99.90;;;;;;4951843;28;20131;-71
2022/08/14 06:18:14;;;;;;;7.20;4.90;;;21.10;99.90;;;;;;4951910;28;20173;-71
2022/08/14 06:20:43;;;;;;;8.50;5.15;;;21.20;99.90;;;;;;4962006;28;20157;-71
2022/08/14 06:23:08;;;;;;;6.45;4.80;;;21.20;99.90;;;;;;4936245;29;20071;-71
2022/08/14 06:25:34;;;;;;;;;;;21.20;99.90;;;;;;4973595;28;20567;-72
2022/08/14 06:28:00;;;;;;;6.55;4.35;;;21.30;99.90;;;;;;4968044;28;20305;-71
2022/08/14 06:30:29;;;;;;;6.53;4.85;;;21.30;99.90;;;;;;4951724;28;20069;-71
2022/08/14 06:32:55;;;;;;;6.72;5.15;;;21.40;99.90;;;;;;4932754;29;20061;-71
2022/08/14 06:35:21;;;;;;;;;;;21.40;99.90;;;;;;4948542;28;20054;-71
2022/08/14 06:37:57;;;;;;;6.45;4.93;;;21.50;99.90;;;;;;4951714;28;20052;-71
2022/08/14 06:40:28;;;;;;;6.45;4.28;;;21.50;99.90;;;;;;4951017;28;20433;-71
2022/08/14 06:43:05;;;;;;;6.38;4.68;;;21.50;99.90;;;;;;4935750;28;20109;-71
2022/08/14 06:45:31;;;;;;;6.18;4.60;;;21.60;99.90;;;;;;4951356;28;20051;-71
2022/08/14 06:47:57;;;;;;;7.43;5.15;;;21.60;99.90;;;;;;4935713;28;20394;-71
2022/08/14 06:50:23;;;;;;;;;;;21.70;99.90;;;;;;4949929;28;20134;-71
2022/08/14 06:52:49;;;;;;;7.57;5.32;;;21.70;99.90;;;;;;4963772;28;19952;-77
2022/08/14 06:55:17;;;;;;;7.47;4.97;;;21.80;99.90;;;;;;4942691;28;20526;-75
2022/08/14 06:57:49;;;;;;;6.78;4.95;;;21.80;99.90;;;;;;4951692;28;20061;-76
2022/08/14 07:00:22;;;;;;;7.90;4.55;;;21.90;99.90;;;;;;4960411;28;20531;-76
2022/08/14 07:08:17;;;;;;;6.15;4.40;;;22.10;99.90;;;;;;4967223;28;20451;-75
2022/08/14 07:10:48;;;;;;;5.93;4.65;;;22.20;99.90;;;;;;4965729;28;20750;-76
2022/08/14 07:13:17;;;;;;;6.95;5.00;;;22.30;99.90;;;;;;4955605;28;20051;-76
2022/08/14 07:15:45;;;;;;;7.72;4.53;;;22.40;99.90;;;;;;4945095;28;20047;-75
2022/08/14 07:18:12;;;;;;;8.00;4.63;;;22.40;99.90;;;;;;4946219;28;20053;-75
2022/08/14 07:20:43;;;;;;;8.48;5.15;;;22.50;99.90;;;;;;4954730;28;20038;-75
2022/08/14 07:23:09;;;;;;;6.00;4.78;;;22.60;99.90;;;;;;4942160;28;20058;-76
2022/08/14 07:25:36;;;;;;;6.60;5.05;;;22.60;99.90;;;;;;4959519;28;20055;-75
2022/08/14 07:28:15;;;;;;;6.75;4.82;;;22.70;99.90;;;;;;4946634;28;20525;-75
2022/08/14 07:30:42;;;;;;;5.78;4.03;;;22.80;99.90;;;;;;4959667;28;20035;-76
2022/08/14 07:33:15;;;;;;;6.78;4.60;;;22.80;99.90;;;;;;4926867;28;20134;-77
2022/08/14 07:35:41;;;;;;;6.35;4.55;;;22.90;99.90;;;;;;4947845;28;20042;-76
2022/08/14 07:38:07;;;;;;;;;;;22.90;99.90;;;;;;4936589;28;20060;-76
2022/08/14 07:40:33;;;;;;;5.97;4.50;;;23.00;99.90;;;;;;4961613;28;19918;-75
2022/08/14 07:43:00;;;;;;;7.43;5.00;;;23.10;99.90;;;;;;4947913;28;20141;-78
2022/08/14 07:45:27;;;;;;;7.10;5.07;;;23.20;99.90;;;;;;4947974;28;20102;-75
2022/08/14 07:47:56;;;;;;;8.23;4.85;;;23.20;99.90;;;;;;4953076;28;20141;-76
2022/08/14 07:50:23;;;;;;;7.15;4.82;;;23.30;99.90;;;;;;4948820;28;20046;-76
2022/08/14 07:52:48;;;;;;;6.90;5.20;;;23.40;99.90;;;;;;4982109;23;20078;-74
2022/08/14 07:55:15;;;;;;;;;;;23.40;99.90;;;;;;4995779;28;20198;-74
2022/08/14 07:57:46;;;;;;;5.80;4.18;;;23.50;99.90;;;;;;5005062;28;19917;-74
2022/08/14 08:00:18;;;;;;;5.68;4.22;;;23.60;99.90;;;;;;4987887;28;20140;-75
2022/08/14 08:02:46;;;;;;;10.18;4.90;;;23.60;99.90;;;;;;5007871;28;20046;-74
2022/08/14 08:05:12;;;;;;;5.50;4.00;;;23.70;99.90;;;;;;4988724;28;20073;-74
2022/08/14 08:07:39;;;;;;;5.85;4.53;;;23.70;99.90;;;;;;4985581;28;20117;-75
2022/08/14 08:10:30;;;;;;;6.63;4.40;;;23.90;99.90;;;;;;5003480;28;20042;-74
2022/08/14 08:13:16;;;;;;;6.15;3.78;;;23.90;99.90;;;;;;4984760;28;20571;-75
2022/08/14 08:15:47;;;;;;;6.72;4.30;;;24.00;99.90;;;;;;4984574;28;20128;-75
2022/08/14 08:18:14;;;;;;;5.72;4.40;;;24.10;99.90;;;;;;4978581;28;20112;-75
2022/08/14 08:20:52;;;;;;;4.85;3.92;;;24.20;99.90;;;;;;5003044;28;20046;-74
2022/08/14 08:23:20;;;;;;;6.28;4.22;;;24.30;99.90;;;;;;4978412;28;20057;-74
2022/08/14 08:25:48;;;;;;;6.22;4.10;;;24.40;99.90;;;;;;5006274;28;20441;-75
2022/08/14 08:28:16;;;;;;;6.03;3.72;;;24.50;99.90;;;;;;4987941;28;20042;-75
2022/08/14 08:30:55;;;;;;;4.40;3.58;;;24.60;99.90;;;;;;4983235;28;20050;-75
2022/08/14 08:33:25;;;;;;;5.10;3.95;;;24.70;99.90;;;;;;4986116;28;20053;-74
2022/08/14 08:35:50;;;;;;;5.28;3.55;;;24.80;99.90;;;;;;4982203;28;20128;-75
2022/08/14 08:38:25;;;;;;;4.97;3.83;;;24.80;99.90;;;;;;4988101;28;20571;-73
2022/08/14 08:40:54;;;;;;;5.72;3.58;;;24.90;99.90;;;;;;5004259;28;20033;-75
2022/08/14 08:43:24;;;;;;;5.15;3.70;;;25.00;99.90;;;;;;4988747;28;20050;-74
2022/08/14 08:45:59;;;;;;;5.13;4.10;;;25.10;99.90;;;;;;4984112;28;20388;-74
2022/08/14 08:48:29;;;;;;;8.32;4.40;;;25.20;99.90;;;;;;5010729;28;20073;-74
2022/08/14 08:51:00;;;;;;;5.85;3.35;;;25.30;99.90;;;;;;5006637;28;20108;-73
2022/08/14 08:53:31;;;;;;;5.60;3.95;;;25.40;99.90;;;;;;4970002;28;20038;-75
2022/08/14 08:55:57;;;;;;;5.45;4.00;;;25.50;99.90;;;;;;4981621;28;20045;-74
2022/08/14 08:58:24;;;;;;;4.35;3.50;;;25.50;99.90;;;;;;4992620;28;20655;-75
2022/08/14 09:00:53;;;;;;;4.85;3.47;;;25.60;99.90;;;;;;4970384;28;20042;-75
2022/08/14 09:03:29;;;;;;;4.20;3.53;;;25.70;99.90;;;;;;4984988;28;20471;-75
2022/08/14 09:05:56;;;;;;;8.55;3.88;;;25.80;99.90;;;;;;4989308;28;20474;-75
2022/08/14 09:08:26;;;;;;;4.30;3.40;;;25.90;99.90;;;;;;5001902;28;20039;-75
2022/08/14 09:10:53;;;;;;;4.40;3.60;;;26.00;99.90;;;;;;4983275;28;20076;-75
2022/08/14 09:13:21;;;;;;;5.75;3.75;;;26.10;99.90;;;;;;5004261;28;20042;-74
2022/08/14 09:15:48;;;;;;;6.22;3.58;;;26.20;99.90;;;;;;4984586;28;20041;-75
2022/08/14 09:18:16;;;;;;;5.55;3.55;;;26.20;99.90;;;;;;4984316;28;20524;-75
2022/08/14 09:20:44;;;;;;;4.85;3.20;;;26.30;99.90;;;;;;4986844;28;20587;-74
2022/08/14 09:23:12;;;;;;;4.95;3.42;;;26.40;99.90;;;;;;4985091;28;20045;-74
2022/08/14 09:25:40;;;;;;;4.32;3.47;;;26.50;99.90;;;;;;4981287;28;20132;-74
2022/08/14 09:28:07;;;;;;;5.03;3.67;;;26.60;99.90;;;;;;4983278;28;20399;-76
2022/08/14 09:30:36;;;;;;;5.82;3.65;;;26.60;99.90;;;;;;4988939;28;20042;-75
2022/08/14 09:33:01;;;;;;;4.03;3.20;;;26.80;99.90;;;;;;5012503;28;20038;-75
2022/08/14 09:35:48;;;;;;;4.88;3.60;;;26.80;99.90;;;;;;4986977;28;20133;-74
2022/08/14 09:38:45;;;;;;;4.63;3.60;;;26.90;99.90;;;;;;4971813;28;20056;-75
2022/08/14 09:41:48;;;;;;;4.70;3.58;;;27.00;99.90;;;;;;5006216;28;20388;-75
2022/08/14 09:44:53;;;;;;;4.55;3.40;;;27.10;99.90;;;;;;4986816;28;20068;-75
2022/08/14 09:47:19;;;;;;;4.57;3.50;;;27.30;99.90;;;;;;4972524;28;20041;-75
2022/08/14 09:49:45;;;;;;;4.38;3.03;;;27.30;99.90;;;;;;4988335;28;20050;-75
2022/08/14 09:52:14;;;;;;;4.13;2.83;;;27.30;99.90;;;;;;5002694;28;20048;-76
2022/08/14 09:54:47;;;;;;;4.47;3.20;;;27.40;99.70;;;;;;5008671;28;20157;-75
2022/08/14 09:57:29;;;;;;;4.00;2.92;;;27.50;99.50;;;;;;5005654;28;20056;-74
2022/08/14 09:59:54;;;;;;;3.38;2.65;;;27.70;99.40;;;;;;5001216;28;20499;-73
2022/08/14 10:02:22;;;;;;;4.97;2.90;;;27.70;99.40;;;;;;5006197;28;20045;-75
2022/08/14 10:05:09;;;;;;;4.47;2.97;;;27.90;98.60;;;;;;4992542;28;20045;-75
2022/08/14 10:07:49;;;;;;;3.70;3.30;;;27.90;97.50;;;;;;5008755;28;20112;-74
2022/08/14 10:10:33;;;;;;;4.00;3.17;;;28.00;97.50;;;;;;4977736;28;20499;-74
2022/08/14 10:13:01;;;;;;;5.40;3.10;;;28.20;97.00;;;;;;4990592;28;20046;-74
2022/08/14 10:15:29;;;;;;;4.63;2.70;;;28.30;96.90;;;;;;4972133;28;20049;-74
2022/08/14 10:18:06;;;;;;;3.83;2.70;;;28.30;96.50;;;;;;4981589;28;20046;-74
2022/08/14 10:20:34;;;;;;;3.67;2.47;;;28.40;96.40;;;;;;4971333;28;20049;-74
2022/08/14 10:23:14;;;;;;;5.60;3.17;;;28.50;96.00;;;;;;4986593;28;20042;-74
2022/08/14 10:25:43;;;;;;;3.10;2.50;;;28.60;95.40;;;;;;4985896;28;20407;-74
2022/08/14 10:28:14;;;;;;;4.03;2.75;;;28.70;95.00;;;;;;4984606;28;20103;-74
2022/08/14 10:30:40;;;;;;;3.55;2.80;;;28.70;94.70;;;;;;4994485;28;20041;-75
2022/08/14 10:33:06;;;;;;;3.95;2.80;;;28.70;94.40;;;;;;5014153;28;20037;-74
2022/08/14 10:35:39;;;;;;;3.10;2.40;;;28.80;94.20;;;;;;5006500;28;20218;-74
2022/08/14 10:38:06;;;;;;;3.58;2.47;;;28.90;94.20;;;;;;4984502;28;20065;-74
2022/08/14 10:40:32;;;;;;;3.83;3.03;;;28.90;94.00;;;;;;5008438;28;20150;-73
2022/08/14 10:42:57;;;;;;;3.50;2.60;;;29.00;93.20;;;;;;4990514;28;20161;-74
2022/08/14 10:45:33;;;;;;;3.63;2.20;;;29.10;92.90;;;;;;4988494;28;20053;-74
2022/08/14 10:48:00;;;;;;;3.70;2.78;;;29.20;92.70;;;;;;5010571;28;20479;-77
2022/08/14 10:50:35;;;;;;;3.38;2.85;;;29.20;92.50;;;;;;4976361;28;20050;-74
2022/08/14 10:53:04;;;;;;;3.65;2.90;;;29.20;92.50;;;;;;4985973;28;20113;-74
2022/08/14 10:55:38;;;;;;;3.83;2.92;;;29.40;92.40;;;;;;4989376;28;20364;-73
2022/08/14 10:58:11;;;;;;;4.53;3.10;;;29.50;92.00;;;;;;4985354;28;20046;-74
2022/08/14 11:00:40;;;;;;;3.00;2.40;;;29.50;91.80;;;;;;5005375;28;20049;-74
2022/08/14 11:03:16;;;;;;;3.40;2.55;;;29.60;91.40;;;;;;4990370;28;20539;-73
2022/08/14 11:05:50;;;;;;;3.35;2.45;;;29.70;91.10;;;;;;4999090;28;20049;-74
2022/08/14 11:08:28;;;;;;;4.55;2.70;;;29.80;91.00;;;;;;4994708;28;20041;-74
2022/08/14 11:10:56;;;;;;;3.42;2.50;;;29.80;90.70;;;;;;4982489;28;20052;-75
2022/08/14 11:13:26;;;;;;;4.22;3.10;;;29.90;90.40;;;;;;5013499;28;20542;-74
2022/08/14 11:15:59;;;;;;;3.97;2.40;;;29.90;90.10;;;;;;4986050;28;20069;-74
2022/08/14 11:18:27;;;;;;;3.95;2.90;;;29.90;90.00;;;;;;4985462;28;20126;-76
2022/08/14 11:20:55;;;;;;;3.33;2.58;;;30.10;89.40;;;;;;4978864;28;20400;-75
2022/08/14 11:23:27;;;;;;;3.33;2.60;;;30.10;89.00;;;;;;5003586;28;20045;-75
2022/08/14 11:25:55;;;;;;;3.70;2.80;;;30.20;88.80;;;;;;5013291;28;20092;-75
2022/08/14 11:28:24;;;;;;;2.90;2.38;;;30.30;88.30;;;;;;5001289;28;20395;-75
2022/08/14 11:30:51;;;;;;;3.42;2.70;;;30.30;87.20;;;;;;4979174;28;20433;-76
2022/08/14 11:33:31;;;;;;;3.30;2.30;;;30.40;86.10;;;;;;4983899;28;20041;-76
2022/08/14 11:35:59;;;;;;;2.85;2.30;;;30.40;84.50;;;;;;4970396;28;20044;-76
2022/08/14 11:38:36;;;;;;;3.38;2.50;;;30.50;84.70;;;;;;5014450;28;20042;-75
2022/08/14 11:41:03;;;;;;;3.22;2.60;;;30.60;84.60;;;;;;4995034;28;20574;-75
2022/08/14 11:43:43;;;;;;;3.42;2.67;;;30.70;83.80;;;;;;4955478;28;20620;-75
2022/08/14 11:46:12;;;;;;;5.50;2.70;;;30.70;82.60;;;;;;4870790;28;20683;-74
2022/08/14 11:48:54;;;;;;;4.78;2.60;;;30.80;82.20;;;;;;4923361;28;20806;-77
2022/08/14 11:51:24;;;;;;;4.07;2.35;;;30.80;81.80;;;;;;5000186;28;20502;-76
2022/08/14 11:53:56;;;;;;;3.47;2.53;;;30.90;81.40;;;;;;4976675;28;20048;-75
2022/08/14 11:56:34;;;;;;;3.70;2.70;;;30.90;80.90;;;;;;4933063;28;20510;-75
2022/08/14 11:59:01;;;;;;;4.75;2.55;;;31.00;79.90;;;;;;4995193;28;20481;-76
2022/08/14 12:01:32;;;;;;;3.33;2.33;;;31.10;79.90;;;;;;4961528;28;20107;-75
2022/08/14 12:04:28;;;;;;;3.50;2.35;;;31.10;79.20;;;;;;4945946;28;20669;-75
2022/08/14 12:06:54;;;;;;;2.93;2.10;;;31.20;77.90;;;;;;4920786;28;20042;-76
2022/08/14 12:09:38;;;;;;;3.58;2.60;;;31.30;76.70;;;;;;4999441;28;20614;-76
2022/08/14 12:12:25;;;;;;;3.33;2.25;;;31.30;75.80;;;;;;4986750;28;20377;-76
2022/08/14 12:14:58;;;;;;;3.03;2.10;;;31.40;76.30;;;;;;4908340;28;20543;-75
2022/08/14 12:17:32;;;;;;;2.40;2.20;;;31.40;74.80;;;;;;4915183;28;20101;-77
2022/08/14 12:20:03;;;;;;;3.50;2.60;;;31.50;74.70;;;;;;4914776;28;20117;-76
2022/08/14 12:22:44;;;;;;;4.75;2.83;;;31.50;74.40;;;;;;5009671;28;20056;-74
2022/08/14 12:25:18;;;;;;;3.05;2.40;;;31.60;74.30;;;;;;5016166;28;20088;-75
2022/08/14 12:27:50;;;;;;;3.35;2.45;;;31.70;73.70;;;;;;4922235;28;20041;-79
2022/08/14 12:30:39;;;;;;;3.72;2.30;;;31.70;73.00;;;;;;4918173;28;20475;-77
2022/08/14 12:33:24;;;;;;;2.92;2.05;;;31.80;73.10;;;;;;4995191;28;20052;-77
2022/08/14 12:35:51;;;;;;;3.80;2.63;;;31.80;72.80;;;;;;4989758;28;20179;-77
2022/08/14 12:38:18;;;;;;;2.70;2.00;;;31.90;72.70;;;;;;5008693;28;20160;-79
2022/08/14 12:40:52;;;;;;;4.63;2.30;;;31.90;72.50;;;;;;5004786;28;20053;-77
2022/08/14 12:43:20;;;;;;;3.78;2.10;;;32.00;72.10;;;;;;4981421;28;20463;-75
2022/08/14 12:45:49;;;;;;;3.70;2.60;;;32.10;70.70;;;;;;4978461;28;20038;-75
2022/08/14 12:48:18;;;;;;;3.92;2.33;;;32.10;70.30;;;;;;4990282;28;20503;-75
2022/08/14 12:50:45;;;;;;;3.30;2.50;;;32.20;70.30;;;;;;4992490;28;20470;-75
2022/08/14 12:53:19;;;;;;;3.47;2.60;;;32.20;69.80;;;;;;4943376;28;20143;-74
2022/08/14 12:56:18;;;;;;;3.15;2.70;;;32.30;69.70;;;;;;4957805;28;20405;-74
2022/08/14 12:58:56;;;;;;;3.80;2.53;;;32.40;70.50;;;;;;4991697;28;20460;-75
2022/08/14 13:01:29;;;;;;;2.90;2.50;;;32.50;69.80;;;;;;4999960;28;20728;-74
2022/08/14 13:04:07;;;;;;;3.72;2.72;;;32.50;68.50;;;;;;4924308;28;20339;-74
2022/08/14 13:06:38;;;;;;;3.45;2.30;;;32.60;67.30;;;;;;4975709;28;20496;-75
2022/08/14 13:09:07;;;;;;;3.30;2.40;;;32.50;66.60;;;;;;5000924;28;20096;-75
2022/08/14 13:11:58;;;;;;;3.72;2.60;;;32.50;66.30;;;;;;4999607;28;20041;-76
2022/08/14 13:14:25;;;;;;;3.80;2.63;;;32.50;66.50;;;;;;5005190;28;20520;-75
2022/08/14 13:16:56;;;;;;;3.88;2.50;;;32.60;66.50;;;;;;4996835;28;20404;-75
2022/08/14 13:19:24;;;;;;;2.88;2.15;;;32.70;65.30;;;;;;4847947;28;20582;-75
2022/08/14 13:22:01;;;;;;;3.20;2.50;;;32.70;65.20;;;;;;4810876;28;20049;-75